map of CXO home
CXO - Airport
Location
City:  Houston, Texas, United States
Name:Conroe-North Houston Regional
ICAO:KCXO
IATA:CXO
FAA LID:CXO

Details
Type:Airport (Airfield)
Use:Public/Civil
Latitude:3021'12"N (30.353396)
Longitude:9524'54"W (-95.415081)
Datum:WGS 1984
Elevation:244 ft (74 m)
Variation:2.50E (WMM2015 magnetic declination)
-0.11 annual change
Runways:2
Longest:7501 × 150 ft (2286 × 45.5 m), paved

Time
Time Zone:UTC-6 (DST-5)
Local Time:

Weather
METAR:KCXO 140853Z AUTO 00000KT 10SM CLR 04/04 A2995 RMK AO2 SLP140 T00440044 57005
TAF:KCXO 140520Z 1406/1506 20004KT P6SM BKN300
FM142100 33005KT P6SM FEW100 OVC250

Related Locations
Nearby:
Farthest:CCK: 10959 mi / 17637 km
West Island (Pulau Panjang) [Cocos (Keeling) Islands], CC

Find:

   beyond  
but within

Other Information
Maps:
NOTAMs:
Links:
Sources:

  
flag of United States
flag of Texas
flag of Houston
  

Airport Diagram

Airport diagram for CXO

Airport diagram PDF

Sectional Chart

Flight Planning
at skyvector.com

Satellite Image

Google Maps Satellite view

 

Copyright © 2004-2017 Karl L. Swartz. All rights reserved.
The Great Circle Mapper name and logo are trademarks of the Great Circle Mapper.
All other trademarks mentioned herein belong to their respective owners.
Please see credits for attibutions and further copyright information.

  Follow gcmap on Facebook Follow gcmap on Twitter Follow gcmap on Google+ GCmap on LinkedIn

hCard Microformat

Geo Microformat